createdAt,value
2018-07-26T00:00:46.275Z,19.43
2018-07-26T00:03:15.409Z,20.67
2018-07-26T00:05:44.547Z,19.83
2018-07-26T00:08:13.776Z,19.83
2018-07-26T00:10:43.079Z,20.47
2018-07-26T00:13:12.337Z,19.23
2018-07-26T00:15:41.596Z,20.23
2018-07-26T00:18:10.724Z,22.23
2018-07-26T00:20:39.910Z,20.50
2018-07-26T00:23:09.112Z,19.20
2018-07-26T00:25:38.272Z,19.17
2018-07-26T00:28:07.538Z,19.63
2018-07-26T00:30:36.876Z,19.37
2018-07-26T00:33:06.091Z,19.40
2018-07-26T00:35:35.279Z,18.00
2018-07-26T00:38:04.548Z,18.33
2018-07-26T00:40:33.719Z,19.53
2018-07-26T00:43:02.536Z,20.47
2018-07-26T00:45:31.579Z,20.70
2018-07-26T00:48:00.746Z,22.73
2018-07-26T00:50:29.913Z,22.30
2018-07-26T00:52:59.041Z,18.90
2018-07-26T00:55:28.218Z,18.13
2018-07-26T00:57:57.388Z,17.20
2018-07-26T01:00:26.271Z,16.80
2018-07-26T01:02:55.316Z,16.10
2018-07-26T01:05:24.464Z,16.10
2018-07-26T01:07:53.605Z,14.83
2018-07-26T01:10:22.789Z,15.90
2018-07-26T01:12:52.045Z,14.53
2018-07-26T01:15:21.191Z,14.20
2018-07-26T01:17:50.372Z,15.90
2018-07-26T01:20:19.523Z,16.40
2018-07-26T01:22:48.696Z,17.13
2018-07-26T01:25:17.816Z,17.27
2018-07-26T01:27:47.079Z,16.77
2018-07-26T01:30:16.383Z,17.60
2018-07-26T01:32:45.539Z,16.10
2018-07-26T01:35:14.663Z,15.97
2018-07-26T01:37:43.805Z,16.47
2018-07-26T01:40:13.018Z,16.37
2018-07-26T01:42:53.325Z,15.90
2018-07-26T01:45:22.525Z,15.87
2018-07-26T01:47:51.646Z,15.90
2018-07-26T01:50:20.770Z,15.73
2018-07-26T01:52:49.941Z,16.40
2018-07-26T01:55:19.514Z,16.70
2018-07-26T01:57:48.781Z,17.97
2018-07-26T02:00:18.131Z,18.03
2018-07-26T02:02:47.836Z,17.83
2018-07-26T02:05:16.980Z,18.37
2018-07-26T02:07:46.132Z,17.63
2018-07-26T02:10:15.271Z,17.80
2018-07-26T02:12:44.405Z,18.17
2018-07-26T02:15:13.595Z,16.70
2018-07-26T02:17:42.924Z,17.77
2018-07-26T02:20:12.212Z,18.87
2018-07-26T02:22:41.377Z,18.63
2018-07-26T02:25:10.541Z,18.63
2018-07-26T02:27:39.692Z,18.30
2018-07-26T02:30:08.916Z,17.00
2018-07-26T02:32:38.028Z,19.03
2018-07-26T02:35:07.251Z,18.77
2018-07-26T02:37:36.438Z,17.80
2018-07-26T02:40:06.017Z,18.17
2018-07-26T02:42:35.144Z,18.00
2018-07-26T02:45:04.338Z,18.00
2018-07-26T02:47:33.489Z,17.37
2018-07-26T02:50:02.681Z,19.00
2018-07-26T02:52:31.820Z,20.00
2018-07-26T02:55:01.290Z,19.87
2018-07-26T02:57:30.437Z,20.60
2018-07-26T02:59:59.554Z,19.60
2018-07-26T03:02:28.675Z,19.87
2018-07-26T03:04:57.847Z,19.00
2018-07-26T03:07:27.004Z,19.60
2018-07-26T03:09:56.121Z,18.77
2018-07-26T03:12:25.612Z,19.33
2018-07-26T03:14:54.746Z,19.53
2018-07-26T03:17:23.959Z,19.57
2018-07-26T03:19:53.109Z,18.47
2018-07-26T03:22:22.226Z,17.80
2018-07-26T03:24:51.461Z,18.50
2018-07-26T03:27:20.605Z,19.27
2018-07-26T03:29:49.788Z,18.57
2018-07-26T03:32:18.932Z,17.67
2018-07-26T03:34:48.141Z,17.40
2018-07-26T03:37:17.338Z,17.63
2018-07-26T03:39:46.541Z,17.33
2018-07-26T03:42:15.685Z,17.80
2018-07-26T03:44:44.938Z,18.50
2018-07-26T03:47:14.169Z,16.87
2018-07-26T03:49:44.032Z,16.67
2018-07-26T03:52:14.022Z,16.97
2018-07-26T03:54:43.178Z,16.30
2018-07-26T03:57:12.439Z,16.43
2018-07-26T03:59:41.636Z,16.57
2018-07-26T04:02:10.789Z,16.93
2018-07-26T04:04:39.594Z,16.40
2018-07-26T04:07:08.712Z,17.83
2018-07-26T04:09:37.882Z,18.67
2018-07-26T04:12:07.171Z,18.53
2018-07-26T04:14:36.255Z,19.20
2018-07-26T04:17:05.490Z,18.57
2018-07-26T04:19:34.771Z,18.03
2018-07-26T04:22:03.956Z,17.97
2018-07-26T04:24:33.205Z,19.07
2018-07-26T04:27:02.392Z,18.23
2018-07-26T04:29:31.545Z,19.57
2018-07-26T04:32:00.774Z,20.03
2018-07-26T04:34:29.830Z,19.40
2018-07-26T04:36:58.975Z,20.00
2018-07-26T04:39:28.068Z,19.97
2018-07-26T04:41:57.239Z,20.27
2018-07-26T04:44:26.363Z,20.20
2018-07-26T04:46:55.600Z,20.20
2018-07-26T04:49:24.768Z,20.17
2018-07-26T04:51:53.921Z,19.07
2018-07-26T04:54:23.350Z,19.63
2018-07-26T04:56:52.426Z,19.30
2018-07-26T04:59:21.668Z,19.70
2018-07-26T05:01:50.837Z,19.03
2018-07-26T05:04:20.071Z,18.90
2018-07-26T05:06:49.239Z,18.93
2018-07-26T05:09:18.462Z,17.83
2018-07-26T05:11:47.547Z,18.50
2018-07-26T05:14:16.729Z,18.83
2018-07-26T05:16:45.874Z,18.70
2018-07-26T05:19:15.524Z,18.73
2018-07-26T05:21:44.679Z,17.30
2018-07-26T05:24:13.888Z,17.70
2018-07-26T05:26:43.629Z,18.43
2018-07-26T05:29:12.867Z,17.67
2018-07-26T05:31:42.001Z,17.23
2018-07-26T05:34:11.243Z,17.67
2018-07-26T05:36:40.400Z,16.33
2018-07-26T05:39:11.044Z,14.83
2018-07-26T05:41:40.804Z,16.07
2018-07-26T05:44:10.098Z,14.00
2018-07-26T05:46:39.291Z,14.40
2018-07-26T05:49:08.431Z,14.83
2018-07-26T05:51:37.647Z,13.90
2018-07-26T05:54:06.832Z,13.10
2018-07-26T05:56:36.038Z,15.60
2018-07-26T05:59:05.463Z,14.00
2018-07-26T06:01:34.655Z,14.27
2018-07-26T06:04:03.808Z,14.37
2018-07-26T06:06:32.946Z,14.40
2018-07-26T06:09:02.225Z,14.27
2018-07-26T06:11:31.440Z,14.63
2018-07-26T06:14:00.543Z,14.57
2018-07-26T06:16:29.844Z,14.93
2018-07-26T06:18:58.983Z,15.20
2018-07-26T06:21:28.124Z,15.20
2018-07-26T06:23:57.256Z,16.23
2018-07-26T06:26:26.401Z,15.47
2018-07-26T06:28:56.158Z,15.40
2018-07-26T06:31:25.343Z,15.03
2018-07-26T06:33:54.564Z,15.47
2018-07-26T06:36:24.403Z,15.40
2018-07-26T06:38:53.573Z,15.37
2018-07-26T06:41:22.804Z,15.00
2018-07-26T06:43:51.960Z,14.57
2018-07-26T06:46:21.139Z,14.20
2018-07-26T06:48:50.402Z,14.50
2018-07-26T06:51:19.907Z,14.13
2018-07-26T06:53:49.043Z,13.63
2018-07-26T06:56:18.172Z,14.20
2018-07-26T06:58:47.355Z,14.23
2018-07-26T07:01:17.321Z,13.43
2018-07-26T07:03:46.475Z,14.23
2018-07-26T07:06:15.590Z,13.70
2018-07-26T07:08:44.886Z,13.47
2018-07-26T07:11:14.153Z,13.30
2018-07-26T07:13:43.303Z,11.87
2018-07-26T07:16:12.506Z,11.57
2018-07-26T07:18:41.669Z,11.00
2018-07-26T07:21:11.081Z,11.40
2018-07-26T07:23:39.891Z,9.90
2018-07-26T07:26:08.938Z,10.37
2018-07-26T07:28:38.083Z,10.70
2018-07-26T07:31:07.366Z,10.47
2018-07-26T07:33:36.519Z,9.93
2018-07-26T07:36:05.734Z,9.77
2018-07-26T07:38:34.983Z,9.53
2018-07-26T07:41:04.177Z,9.20
2018-07-26T07:43:33.363Z,7.80
2018-07-26T07:46:02.484Z,8.40
2018-07-26T07:48:31.696Z,9.27
2018-07-26T07:51:00.949Z,7.90
2018-07-26T07:53:30.081Z,6.97
2018-07-26T07:55:59.402Z,6.70
2018-07-26T07:58:28.656Z,6.50
2018-07-26T08:00:57.859Z,7.20
2018-07-26T08:03:26.707Z,7.00
2018-07-26T08:05:55.724Z,5.80
2018-07-26T08:08:24.875Z,6.27
2018-07-26T08:10:54.071Z,6.13
2018-07-26T08:13:23.345Z,5.27
2018-07-26T08:15:52.513Z,5.33
2018-07-26T08:18:21.736Z,5.10
2018-07-26T08:20:50.877Z,5.47
2018-07-26T08:23:20.030Z,5.40
2018-07-26T08:25:49.168Z,5.77
2018-07-26T08:28:18.314Z,6.10
2018-07-26T08:30:48.128Z,6.63
2018-07-26T08:33:17.347Z,7.03
2018-07-26T08:35:46.177Z,7.30
2018-07-26T08:38:15.276Z,7.90
2018-07-26T08:40:44.479Z,7.10
2018-07-26T08:43:13.732Z,7.73
2018-07-26T08:45:42.937Z,8.30
2018-07-26T08:48:12.332Z,7.80
2018-07-26T08:50:41.372Z,8.70
2018-07-26T08:53:10.538Z,7.93
2018-07-26T08:55:39.795Z,7.83
2018-07-26T08:58:09.004Z,7.17
2018-07-26T09:00:38.225Z,6.87
2018-07-26T09:03:07.437Z,7.83
2018-07-26T09:05:36.659Z,7.03
2018-07-26T09:08:05.869Z,7.60
2018-07-26T09:10:35.081Z,7.00
2018-07-26T09:13:04.360Z,7.10
2018-07-26T09:15:33.628Z,6.87
2018-07-26T09:18:02.507Z,6.90
2018-07-26T09:20:31.564Z,6.63
2018-07-26T09:23:00.687Z,6.00
2018-07-26T09:25:29.815Z,6.53
2018-07-26T09:27:58.995Z,6.40
2018-07-26T09:30:27.863Z,6.60
2018-07-26T09:32:56.953Z,7.03
2018-07-26T09:35:26.136Z,6.90
2018-07-26T09:37:55.298Z,6.10
2018-07-26T09:40:24.400Z,6.83
2018-07-26T09:42:53.571Z,6.72
2018-07-26T09:45:22.729Z,6.78
2018-07-26T09:47:51.871Z,6.08
2018-07-26T09:50:21.047Z,6.08
2018-07-26T09:52:50.291Z,6.40
2018-07-26T09:55:19.661Z,6.28
2018-07-26T09:57:49.372Z,5.95
2018-07-26T10:00:23.863Z,5.92
2018-07-26T10:02:52.952Z,5.90
2018-07-26T10:05:22.231Z,5.70
2018-07-26T10:07:51.433Z,6.05
2018-07-26T10:10:20.690Z,5.90
2018-07-26T10:12:49.957Z,5.37
2018-07-26T10:15:19.108Z,6.00
2018-07-26T10:17:48.326Z,5.90
2018-07-26T10:20:17.635Z,5.40
2018-07-26T10:22:46.757Z,5.67
2018-07-26T10:25:15.946Z,5.50
2018-07-26T10:27:45.727Z,5.33
2018-07-26T10:30:14.886Z,5.42
2018-07-26T10:32:44.044Z,5.70
2018-07-26T10:35:13.223Z,5.50
2018-07-26T10:37:42.408Z,5.30
2018-07-26T10:40:12.057Z,5.60
2018-07-26T10:42:41.488Z,5.33
2018-07-26T10:45:10.619Z,5.45
2018-07-26T10:47:39.867Z,5.05
2018-07-26T10:50:10.380Z,5.50
2018-07-26T10:52:39.684Z,5.42
2018-07-26T10:55:09.283Z,4.97
2018-07-26T10:57:39.442Z,5.20
2018-07-26T11:00:09.687Z,4.67
2018-07-26T11:02:39.096Z,5.33
2018-07-26T11:05:09.359Z,4.90
2018-07-26T11:07:39.031Z,5.33
2018-07-26T11:10:09.695Z,4.62
2018-07-26T11:12:38.837Z,4.55
2018-07-26T11:15:34.715Z,4.45
2018-07-26T11:18:04.410Z,4.42
2018-07-26T11:20:33.716Z,4.58
2018-07-26T11:23:02.940Z,4.42
2018-07-26T11:25:31.829Z,4.50
2018-07-26T11:28:00.925Z,3.58
2018-07-26T11:30:30.084Z,3.98
2018-07-26T11:32:59.705Z,3.90
2018-07-26T11:35:28.947Z,4.10
2018-07-26T11:37:58.178Z,4.15
2018-07-26T11:40:27.425Z,4.00
2018-07-26T11:42:56.709Z,4.20
2018-07-26T11:45:25.938Z,3.80
2018-07-26T11:47:55.100Z,3.87
2018-07-26T11:50:24.398Z,3.83
2018-07-26T11:52:53.600Z,3.98
2018-07-26T11:55:22.832Z,3.98
2018-07-26T11:57:52.036Z,3.90
2018-07-26T12:00:21.219Z,4.05
2018-07-26T12:02:50.464Z,4.10
2018-07-26T12:05:19.631Z,4.00
2018-07-26T12:07:48.860Z,3.87
2018-07-26T12:10:18.142Z,3.67
2018-07-26T12:12:47.900Z,3.60
2018-07-26T12:15:17.048Z,4.08
2018-07-26T12:17:46.251Z,3.90
2018-07-26T12:20:15.464Z,3.42
2018-07-26T12:22:44.639Z,3.80
2018-07-26T12:25:13.948Z,3.65
2018-07-26T12:27:42.833Z,3.92
2018-07-26T12:30:12.031Z,3.33
2018-07-26T12:32:41.505Z,3.50
2018-07-26T12:35:11.163Z,3.80
2018-07-26T12:37:40.303Z,3.67
2018-07-26T12:40:09.542Z,3.85
2018-07-26T12:42:38.667Z,3.50
2018-07-26T12:45:07.826Z,3.77
2018-07-26T12:47:37.090Z,3.87
2018-07-26T12:50:06.287Z,3.70
2018-07-26T12:52:35.557Z,4.10
2018-07-26T12:55:04.764Z,3.92
2018-07-26T12:57:33.998Z,3.80
2018-07-26T13:00:04.568Z,3.47
2018-07-26T13:02:33.799Z,3.55
2018-07-26T13:05:02.962Z,3.72
2018-07-26T13:07:32.822Z,3.95
2018-07-26T13:10:02.016Z,3.85
2018-07-26T13:12:30.859Z,4.10
2018-07-26T13:14:59.979Z,3.77
2018-07-26T13:17:29.124Z,4.00
2018-07-26T13:19:58.399Z,3.70
2018-07-26T13:22:27.654Z,3.60
2018-07-26T13:24:56.930Z,3.33
2018-07-26T13:27:26.094Z,3.75
2018-07-26T13:29:55.344Z,3.72
2018-07-26T13:32:24.668Z,3.60
2018-07-26T13:34:53.779Z,3.72
2018-07-26T13:37:22.913Z,3.83
2018-07-26T13:39:52.153Z,3.52
2018-07-26T13:42:21.327Z,3.42
2018-07-26T13:44:50.607Z,3.95
2018-07-26T13:47:20.032Z,3.65
2018-07-26T13:49:49.174Z,3.67
2018-07-26T13:52:18.506Z,3.58
2018-07-26T13:54:47.644Z,3.60
2018-07-26T13:57:16.794Z,3.77
2018-07-26T13:59:45.977Z,3.37
2018-07-26T14:02:15.119Z,3.58
2018-07-26T14:04:44.830Z,3.50
2018-07-26T14:07:14.161Z,3.65
2018-07-26T14:09:43.319Z,3.62
2018-07-26T14:12:13.101Z,3.70
2018-07-26T14:14:42.262Z,3.70
2018-07-26T14:17:11.441Z,3.52
2018-07-26T14:19:40.633Z,3.72
2018-07-26T14:22:10.447Z,3.90
2018-07-26T14:24:39.688Z,3.58
2018-07-26T14:27:09.436Z,4.00
2018-07-26T14:29:38.689Z,3.80
2018-07-26T14:32:07.935Z,4.10
2018-07-26T14:34:37.121Z,4.08
2018-07-26T14:37:06.319Z,4.00
2018-07-26T14:39:35.505Z,4.42
2018-07-26T14:42:04.777Z,4.40
2018-07-26T14:44:33.947Z,4.17
2018-07-26T14:47:03.146Z,4.20
2018-07-26T14:49:32.365Z,4.15
2018-07-26T14:52:01.471Z,4.28
2018-07-26T14:54:30.763Z,4.20
2018-07-26T14:57:00.018Z,4.35
2018-07-26T14:59:29.164Z,4.40
2018-07-26T15:01:58.980Z,4.25
2018-07-26T15:04:28.220Z,4.53
2018-07-26T15:06:57.037Z,4.15
2018-07-26T15:09:26.133Z,4.30
2018-07-26T15:11:55.349Z,4.60
2018-07-26T15:14:24.626Z,4.28
2018-07-26T15:16:53.861Z,4.30
2018-07-26T15:19:23.029Z,4.17
2018-07-26T15:21:52.229Z,4.92
2018-07-26T15:24:21.411Z,4.20
2018-07-26T15:26:50.640Z,4.22
2018-07-26T15:29:20.111Z,4.25
2018-07-26T15:31:49.229Z,4.00
2018-07-26T15:34:18.425Z,4.28
2018-07-26T15:36:47.612Z,4.00
2018-07-26T15:39:16.750Z,3.80
2018-07-26T15:41:47.029Z,4.00
2018-07-26T15:44:16.698Z,4.08
2018-07-26T15:46:45.906Z,3.75
2018-07-26T15:49:15.213Z,3.85
2018-07-26T15:51:44.395Z,3.92
2018-07-26T15:54:13.780Z,3.70
2018-07-26T15:56:42.994Z,3.47
2018-07-26T15:59:12.236Z,3.65
2018-07-26T16:01:41.402Z,3.80
2018-07-26T16:04:10.595Z,3.77
2018-07-26T16:06:39.889Z,4.03
2018-07-26T16:09:10.188Z,3.70
2018-07-26T16:11:39.563Z,3.58
2018-07-26T16:14:09.763Z,3.67
2018-07-26T16:16:39.404Z,3.75
2018-07-26T16:19:08.619Z,3.42
2018-07-26T16:21:37.765Z,3.90
2018-07-26T16:24:07.000Z,3.83
2018-07-26T16:26:36.230Z,3.87
2018-07-26T16:29:05.571Z,3.40
2018-07-26T16:31:34.718Z,3.52
2018-07-26T16:34:03.962Z,3.85
2018-07-26T16:36:33.153Z,3.75
2018-07-26T16:39:02.421Z,3.83
2018-07-26T16:41:31.540Z,3.40
2018-07-26T16:44:00.795Z,4.17
2018-07-26T16:46:30.017Z,3.85
2018-07-26T16:48:59.145Z,4.10
2018-07-26T16:51:28.670Z,3.55
2018-07-26T16:53:58.011Z,3.80
2018-07-26T16:56:27.213Z,3.87
2018-07-26T16:58:56.461Z,3.92
2018-07-26T17:01:26.614Z,4.10
2018-07-26T17:03:55.780Z,4.00
2018-07-26T17:06:24.964Z,3.60
2018-07-26T17:08:54.729Z,3.40
2018-07-26T17:11:23.952Z,3.72
2018-07-26T17:13:53.151Z,4.00
2018-07-26T17:16:22.408Z,3.60
2018-07-26T17:18:51.743Z,3.77
2018-07-26T17:21:20.859Z,3.72
2018-07-26T17:23:50.025Z,3.70
2018-07-26T17:26:19.215Z,3.42
2018-07-26T17:28:48.562Z,3.92
2018-07-26T17:31:17.698Z,3.50
2018-07-26T17:33:46.881Z,4.00
2018-07-26T17:36:16.127Z,3.40
2018-07-26T17:38:45.295Z,3.87
2018-07-26T17:41:14.191Z,3.80
2018-07-26T17:43:43.343Z,3.42
2018-07-26T17:46:12.504Z,3.60
2018-07-26T17:48:41.672Z,3.77
2018-07-26T17:51:10.878Z,3.80
2018-07-26T17:53:39.995Z,3.62
2018-07-26T17:56:09.280Z,3.72
2018-07-26T17:58:38.127Z,3.55
2018-07-26T18:01:07.345Z,3.83
2018-07-26T18:03:36.574Z,3.58
2018-07-26T18:06:06.091Z,3.60
2018-07-26T18:08:35.292Z,3.47
2018-07-26T18:11:04.523Z,3.50
2018-07-26T18:13:33.770Z,3.85
2018-07-26T18:16:03.010Z,4.20
2018-07-26T18:18:32.409Z,3.90
2018-07-26T18:21:01.624Z,4.17
2018-07-26T18:23:31.398Z,4.10
2018-07-26T18:26:00.641Z,4.08
2018-07-26T18:28:29.845Z,3.80
2018-07-26T18:30:59.064Z,4.15
2018-07-26T18:33:28.398Z,3.85
2018-07-26T18:35:57.546Z,4.00
2018-07-26T18:38:26.709Z,4.00
2018-07-26T18:40:55.942Z,4.22
2018-07-26T18:43:26.201Z,5.40
2018-07-26T18:45:55.301Z,4.17
2018-07-26T18:48:24.133Z,3.80
2018-07-26T18:50:53.248Z,4.03
2018-07-26T18:53:22.450Z,4.20
2018-07-26T18:55:51.549Z,4.08
2018-07-26T18:58:20.759Z,4.20
2018-07-26T19:00:50.013Z,3.95
2018-07-26T19:03:19.193Z,4.45
2018-07-26T19:05:48.360Z,4.22
2018-07-26T19:08:17.524Z,4.22
2018-07-26T19:10:46.736Z,4.20
2018-07-26T19:13:15.887Z,4.20
2018-07-26T19:15:45.006Z,4.22
2018-07-26T19:18:14.281Z,3.90
2018-07-26T19:20:43.398Z,3.62
2018-07-26T19:23:12.665Z,3.80
2018-07-26T19:25:41.848Z,3.80
2018-07-26T19:28:11.071Z,4.37
2018-07-26T19:30:40.348Z,4.17
2018-07-26T19:33:09.564Z,4.20
2018-07-26T19:35:38.734Z,4.50
2018-07-26T19:38:07.914Z,4.60
2018-07-26T19:40:37.118Z,4.60
2018-07-26T19:43:06.548Z,4.30
2018-07-26T19:45:35.716Z,4.23
2018-07-26T19:48:04.940Z,4.10
2018-07-26T19:50:34.081Z,4.20
2018-07-26T19:53:03.613Z,4.50
2018-07-26T19:55:32.729Z,4.10
2018-07-26T19:58:01.919Z,4.00
2018-07-26T20:00:31.063Z,4.07
2018-07-26T20:03:00.269Z,4.57
2018-07-26T20:05:29.399Z,4.47
2018-07-26T20:07:58.657Z,4.60
2018-07-26T20:10:28.468Z,4.00
2018-07-26T20:12:57.767Z,4.30
2018-07-26T20:15:26.905Z,4.33
2018-07-26T20:17:56.715Z,4.10
2018-07-26T20:20:25.923Z,4.30
2018-07-26T20:22:55.037Z,4.17
2018-07-26T20:25:24.294Z,4.60
2018-07-26T20:27:53.567Z,4.20
2018-07-26T20:30:22.656Z,4.73
2018-07-26T20:32:51.877Z,4.77
2018-07-26T20:35:21.046Z,4.80
2018-07-26T20:37:51.427Z,4.70
2018-07-26T20:40:20.579Z,5.00
2018-07-26T20:42:49.720Z,4.87
2018-07-26T20:45:18.885Z,5.07
2018-07-26T20:47:48.072Z,4.87
2018-07-26T20:50:17.271Z,5.10
2018-07-26T20:52:46.495Z,5.10
2018-07-26T20:55:15.769Z,5.10
2018-07-26T20:57:44.944Z,5.70
2018-07-26T21:00:14.493Z,5.60
2018-07-26T21:02:44.034Z,6.07
2018-07-26T21:05:13.277Z,5.83
2018-07-26T21:07:42.512Z,5.80
2018-07-26T21:10:11.677Z,5.80
2018-07-26T21:12:41.368Z,5.83
2018-07-26T21:15:10.705Z,5.80
2018-07-26T21:17:39.785Z,5.50
2018-07-26T21:20:08.999Z,6.10
2018-07-26T21:22:37.858Z,5.90
2018-07-26T21:25:06.904Z,5.70
2018-07-26T21:27:36.040Z,5.80
2018-07-26T21:30:06.924Z,5.77
2018-07-26T21:32:36.249Z,6.07
2018-07-26T21:35:06.431Z,5.83
2018-07-26T21:37:35.588Z,6.83
2018-07-26T21:40:05.867Z,6.10
2018-07-26T21:42:35.080Z,5.90
2018-07-26T21:45:04.623Z,6.30
2018-07-26T21:47:33.759Z,6.07
2018-07-26T21:50:02.964Z,6.30
2018-07-26T21:52:32.103Z,5.90
2018-07-26T21:55:01.369Z,6.10
2018-07-26T21:57:30.502Z,6.53
2018-07-26T21:59:59.680Z,6.30
2018-07-26T22:02:28.910Z,5.90
2018-07-26T22:04:58.024Z,6.70
2018-07-26T22:07:27.500Z,6.77
2018-07-26T22:09:56.740Z,6.03
2018-07-26T22:12:25.953Z,6.33
2018-07-26T22:14:55.242Z,6.33
2018-07-26T22:17:24.399Z,6.40
2018-07-26T22:19:53.504Z,6.30
2018-07-26T22:22:22.694Z,6.83
2018-07-26T22:24:51.851Z,6.93
2018-07-26T22:27:21.036Z,6.83
2018-07-26T22:29:50.178Z,7.10
2018-07-26T22:32:19.359Z,6.93
2018-07-26T22:34:48.449Z,7.37
2018-07-26T22:37:17.752Z,6.67
2018-07-26T22:39:46.933Z,6.77
2018-07-26T22:42:16.069Z,6.63
2018-07-26T22:44:45.200Z,6.97
2018-07-26T22:47:14.424Z,6.73
2018-07-26T22:49:43.579Z,7.10
2018-07-26T22:52:12.733Z,7.40
2018-07-26T22:54:41.876Z,7.43
2018-07-26T22:57:11.012Z,7.20
2018-07-26T22:59:40.146Z,7.20
2018-07-26T23:02:09.301Z,7.27
2018-07-26T23:04:38.474Z,7.17
2018-07-26T23:07:07.852Z,7.00
2018-07-26T23:09:37.060Z,6.87
2018-07-26T23:12:06.353Z,7.20
2018-07-26T23:14:35.546Z,7.87
2018-07-26T23:17:04.806Z,7.30
2018-07-26T23:19:33.989Z,7.83
2018-07-26T23:22:03.251Z,7.70
2018-07-26T23:24:32.355Z,8.03
2018-07-26T23:27:01.544Z,7.63
2018-07-26T23:29:30.694Z,8.43
2018-07-26T23:31:59.868Z,8.43
2018-07-26T23:34:29.078Z,8.27
2018-07-26T23:36:58.210Z,8.07
2018-07-26T23:39:27.435Z,8.37
2018-07-26T23:41:56.724Z,8.30
2018-07-26T23:44:25.835Z,8.40
2018-07-26T23:46:55.021Z,8.60
2018-07-26T23:49:24.094Z,8.10
2018-07-26T23:51:53.264Z,7.57
2018-07-26T23:54:22.467Z,8.43
2018-07-26T23:56:51.589Z,8.63
2018-07-26T23:59:20.754Z,8.70
